Time;durP1;ratioP1;P1;durP2;ratioP2;P2;SDS_P1;SDS_P2;PMS_P1;PMS_P2;Temp;Humidity;BMP_temperature;BMP_pressure;BME280_temperature;BME280_humidity;BME280_pressure;Samples;Min_cycle;Max_cycle;Signal;HPM_P1;HPM_P2
2021/08/19 00:00:07;;;;;;;8.15;3.83;;;14.30;87.60;;;;;;5053224;28;20495;-81
2021/08/19 00:02:35;;;;;;;3.95;3.13;;;14.30;87.60;;;;;;5051460;28;20417;-81
2021/08/19 00:05:03;;;;;;;6.70;3.60;;;14.30;87.70;;;;;;5039310;28;20038;-81
2021/08/19 00:07:31;;;;;;;4.07;3.40;;;14.30;87.70;;;;;;5074351;28;20470;-81
2021/08/19 00:09:58;;;;;;;3.42;3.13;;;14.30;87.70;;;;;;5067257;28;20041;-82
2021/08/19 00:12:26;;;;;;;4.60;3.10;;;14.30;87.70;;;;;;5053537;28;20052;-80
2021/08/19 00:14:53;;;;;;;3.50;3.08;;;14.20;87.70;;;;;;5046718;28;20045;-81
2021/08/19 00:17:21;;;;;;;4.18;3.28;;;14.20;87.80;;;;;;5042573;28;20410;-81
2021/08/19 00:19:49;;;;;;;4.28;3.10;;;14.20;87.80;;;;;;5032105;28;20041;-81
2021/08/19 00:22:16;;;;;;;5.85;3.30;;;14.20;87.90;;;;;;5056176;28;20040;-81
2021/08/19 00:24:44;;;;;;;4.30;3.47;;;14.20;88.00;;;;;;5047614;28;20064;-81
2021/08/19 00:27:11;;;;;;;3.72;2.92;;;14.20;88.00;;;;;;5052879;28;20045;-81
2021/08/19 00:29:39;;;;;;;4.95;3.08;;;14.20;88.00;;;;;;5054152;28;20440;-81
2021/08/19 00:32:07;;;;;;;3.55;2.90;;;14.20;88.00;;;;;;5067290;28;20037;-81
2021/08/19 00:34:35;;;;;;;6.35;3.60;;;14.20;88.00;;;;;;5049070;28;20406;-81
2021/08/19 00:37:03;;;;;;;4.32;3.30;;;14.20;87.90;;;;;;5042585;28;20444;-82
2021/08/19 00:39:30;;;;;;;3.00;2.40;;;14.20;87.90;;;;;;5053408;28;20048;-81
2021/08/19 00:41:59;;;;;;;3.25;2.88;;;14.20;87.80;;;;;;5047840;28;20049;-81
2021/08/19 00:44:27;;;;;;;2.80;2.58;;;14.20;87.80;;;;;;5047074;28;20045;-82
2021/08/19 00:46:54;;;;;;;7.13;3.00;;;14.20;87.80;;;;;;5046669;28;20383;-82
2021/08/19 00:49:22;;;;;;;3.00;2.65;;;14.20;87.90;;;;;;5044040;28;20057;-82
2021/08/19 00:51:53;;;;;;;3.85;3.17;;;14.10;87.90;;;;;;5067265;28;20053;-81
2021/08/19 00:54:25;;;;;;;4.22;3.03;;;14.20;87.90;;;;;;5041533;28;20045;-82
2021/08/19 00:57:03;;;;;;;3.72;3.15;;;14.10;87.90;;;;;;5053065;28;20060;-82
2021/08/19 00:59:33;;;;;;;5.63;3.05;;;14.10;87.90;;;;;;5070726;28;20052;-82
2021/08/19 01:02:02;;;;;;;7.57;3.47;;;14.10;87.90;;;;;;5049889;28;20049;-81
2021/08/19 01:04:31;;;;;;;7.80;3.28;;;14.10;88.00;;;;;;5053870;28;20513;-81
2021/08/19 01:07:00;;;;;;;6.45;3.08;;;14.10;88.10;;;;;;5052342;28;20060;-81
2021/08/19 01:09:28;;;;;;;3.20;2.90;;;14.10;88.20;;;;;;5058579;28;20402;-81
2021/08/19 01:11:57;;;;;;;3.97;3.00;;;14.00;88.20;;;;;;5069949;28;20040;-81
2021/08/19 01:14:24;;;;;;;3.13;2.33;;;14.00;88.30;;;;;;5064392;28;20044;-81
2021/08/19 01:16:52;;;;;;;3.90;2.60;;;14.00;88.30;;;;;;5042167;28;20053;-82
2021/08/19 01:19:21;;;;;;;3.05;2.75;;;14.00;88.30;;;;;;5053350;28;20394;-82
2021/08/19 01:21:50;;;;;;;6.97;2.92;;;14.00;88.40;;;;;;5045426;28;20403;-82
2021/08/19 01:24:18;;;;;;;2.97;2.47;;;14.00;88.40;;;;;;5038514;28;20091;-80
2021/08/19 01:26:48;;;;;;;7.28;2.88;;;14.00;88.50;;;;;;5055902;28;20402;-80
2021/08/19 01:29:16;;;;;;;6.80;3.28;;;14.10;88.50;;;;;;5060791;28;20038;-81
2021/08/19 01:32:06;;;;;;;7.57;3.33;;;14.00;88.70;;;;;;5070959;28;20393;-81
2021/08/19 01:34:33;;;;;;;8.88;4.05;;;14.00;88.90;;;;;;5038095;28;20049;-81
2021/08/19 01:37:01;;;;;;;6.72;4.03;;;13.90;89.10;;;;;;5051966;28;20069;-81
2021/08/19 01:39:30;;;;;;;3.72;3.38;;;13.90;89.20;;;;;;5054197;28;20474;-81
2021/08/19 01:41:58;;;;;;;5.53;3.53;;;13.80;89.40;;;;;;5046055;28;20438;-81
2021/08/19 01:44:25;;;;;;;8.30;3.58;;;13.80;89.40;;;;;;5061874;28;20350;-81
2021/08/19 01:46:57;;;;;;;5.18;3.67;;;13.80;89.50;;;;;;5063698;28;20409;-81
2021/08/19 01:49:29;;;;;;;3.90;3.50;;;13.80;89.60;;;;;;5059529;28;20375;-81
2021/08/19 01:52:03;;;;;;;5.38;3.58;;;13.80;89.60;;;;;;5049664;28;20037;-81
2021/08/19 01:54:32;;;;;;;5.47;3.20;;;13.80;89.70;;;;;;5050588;28;20402;-81
2021/08/19 01:56:59;;;;;;;4.88;3.75;;;13.80;89.70;;;;;;5050125;28;20064;-81
2021/08/19 01:59:28;;;;;;;3.95;3.38;;;13.90;89.80;;;;;;5062639;28;20041;-81
2021/08/19 02:01:57;;;;;;;4.45;3.60;;;13.80;89.80;;;;;;5071280;28;20041;-81
2021/08/19 02:04:25;;;;;;;4.22;3.47;;;13.80;89.90;;;;;;5050462;28;20048;-81
2021/08/19 02:06:53;;;;;;;4.65;3.70;;;13.80;89.90;;;;;;5058341;28;20052;-81
2021/08/19 02:09:20;;;;;;;3.70;3.40;;;13.80;89.90;;;;;;5069769;28;20036;-81
2021/08/19 02:11:48;;;;;;;5.68;3.65;;;13.80;89.90;;;;;;5046901;28;20045;-81
2021/08/19 02:14:16;;;;;;;5.22;3.70;;;13.80;89.90;;;;;;5056614;28;20040;-81
2021/08/19 02:16:43;;;;;;;4.53;3.00;;;13.80;90.00;;;;;;5053415;28;20049;-81
2021/08/19 02:19:12;;;;;;;3.90;3.10;;;13.80;90.00;;;;;;5065552;28;20041;-81
2021/08/19 02:21:40;;;;;;;5.80;3.65;;;13.80;90.10;;;;;;5063373;28;20045;-81
2021/08/19 02:24:07;;;;;;;8.02;3.28;;;13.70;90.00;;;;;;5069740;28;20044;-81
2021/08/19 02:26:35;;;;;;;4.30;3.47;;;13.80;90.10;;;;;;5059815;28;20048;-81
2021/08/19 02:29:03;;;;;;;4.03;3.28;;;13.80;90.20;;;;;;5055400;28;20067;-81
2021/08/19 02:31:30;;;;;;;4.72;3.50;;;13.80;90.20;;;;;;5061460;28;20044;-80
2021/08/19 02:33:58;;;;;;;6.28;3.60;;;13.70;90.20;;;;;;5050513;28;20041;-81
2021/08/19 02:36:25;;;;;;;4.53;3.08;;;13.80;90.20;;;;;;5039352;28;20041;-81
2021/08/19 02:38:53;;;;;;;4.00;3.22;;;13.70;90.20;;;;;;5043157;28;20045;-81
2021/08/19 02:41:20;;;;;;;6.18;3.40;;;13.80;90.20;;;;;;5041830;28;20072;-81
2021/08/19 02:43:48;;;;;;;2.78;2.58;;;13.80;90.20;;;;;;5057187;28;20037;-81
2021/08/19 02:46:15;;;;;;;6.95;2.70;;;13.80;90.20;;;;;;5042620;28;20474;-81
2021/08/19 02:48:43;;;;;;;6.65;3.00;;;13.80;90.10;;;;;;5044841;28;20041;-80
2021/08/19 02:51:10;;;;;;;3.50;2.65;;;13.80;90.10;;;;;;5055749;28;20498;-81
2021/08/19 02:53:38;;;;;;;6.32;2.78;;;13.80;90.00;;;;;;5052387;28;20486;-82
2021/08/19 02:56:06;;;;;;;2.65;2.22;;;13.80;90.00;;;;;;5041650;28;20399;-81
2021/08/19 02:58:34;;;;;;;3.33;2.50;;;13.80;90.00;;;;;;5068399;28;20398;-81
2021/08/19 03:01:01;;;;;;;4.90;2.78;;;13.80;89.90;;;;;;5057659;28;20048;-80
2021/08/19 03:03:29;;;;;;;3.42;2.67;;;13.80;89.90;;;;;;5048925;28;20045;-80
2021/08/19 03:05:57;;;;;;;4.07;2.45;;;13.80;89.90;;;;;;5048198;28;20478;-80
2021/08/19 03:08:25;;;;;;;2.55;2.35;;;13.80;89.80;;;;;;5040525;28;20521;-80
2021/08/19 03:10:52;;;;;;;2.85;2.63;;;13.80;89.80;;;;;;5044655;28;20057;-81
2021/08/19 03:13:20;;;;;;;2.58;2.38;;;13.80;89.80;;;;;;5047409;28;20042;-81
2021/08/19 03:15:47;;;;;;;3.85;2.90;;;13.80;89.90;;;;;;5047765;28;20045;-81
2021/08/19 03:18:15;;;;;;;3.88;2.50;;;13.80;89.90;;;;;;5043743;28;20043;-80
2021/08/19 03:20:43;;;;;;;3.22;2.50;;;13.80;89.90;;;;;;5060334;28;20053;-80
2021/08/19 03:23:11;;;;;;;4.38;2.90;;;13.80;89.90;;;;;;5062204;28;20045;-81
2021/08/19 03:25:38;;;;;;;3.28;2.63;;;13.80;89.90;;;;;;5062299;28;20049;-81
2021/08/19 03:28:08;;;;;;;6.95;2.95;;;13.80;90.00;;;;;;5052191;28;20049;-81
2021/08/19 03:30:36;;;;;;;4.07;3.20;;;13.80;90.00;;;;;;5047257;28;20041;-81
2021/08/19 03:33:05;;;;;;;3.92;2.50;;;13.70;90.00;;;;;;5050631;28;20068;-81
2021/08/19 03:35:33;;;;;;;3.45;3.00;;;13.80;90.10;;;;;;5041674;28;20060;-81
2021/08/19 03:38:01;;;;;;;3.95;3.00;;;13.70;90.10;;;;;;5044101;28;20521;-81
2021/08/19 03:40:28;;;;;;;4.03;2.97;;;13.70;90.20;;;;;;5046468;28;20046;-81
2021/08/19 03:42:56;;;;;;;8.02;2.88;;;13.80;90.20;;;;;;5036924;28;20434;-80
2021/08/19 03:45:23;;;;;;;5.68;3.25;;;13.70;90.40;;;;;;5037824;28;20045;-81
2021/08/19 03:47:51;;;;;;;8.00;3.60;;;13.70;90.40;;;;;;5033084;28;20052;-81
2021/08/19 03:50:19;;;;;;;4.10;3.30;;;13.70;90.50;;;;;;5042889;28;20068;-81
2021/08/19 03:52:47;;;;;;;4.18;3.15;;;13.60;90.50;;;;;;5050840;28;20040;-81
2021/08/19 03:55:15;;;;;;;4.47;3.40;;;13.70;90.70;;;;;;5040580;28;20048;-81
2021/08/19 03:57:43;;;;;;;3.72;3.10;;;13.60;90.80;;;;;;5034596;28;20572;-81
2021/08/19 04:00:11;;;;;;;5.25;3.70;;;13.60;90.80;;;;;;5050887;28;20045;-81
2021/08/19 04:02:40;;;;;;;4.13;3.10;;;13.60;91.00;;;;;;5043313;28;20049;-82
2021/08/19 04:05:08;;;;;;;3.85;3.05;;;13.60;91.00;;;;;;5043393;28;20049;-81
2021/08/19 04:07:40;;;;;;;3.45;3.00;;;13.60;91.10;;;;;;5046469;28;20051;-81
2021/08/19 04:10:08;;;;;;;3.65;2.95;;;13.60;91.20;;;;;;5042036;28;20056;-82
2021/08/19 04:12:36;;;;;;;8.02;3.75;;;13.50;91.20;;;;;;5033446;28;20064;-81
2021/08/19 04:15:05;;;;;;;4.35;3.47;;;13.50;91.20;;;;;;5044001;28;20053;-81
2021/08/19 04:17:33;;;;;;;3.17;2.88;;;13.50;91.20;;;;;;5034138;28;20069;-81
2021/08/19 04:20:01;;;;;;;8.55;3.67;;;13.50;91.30;;;;;;5041002;28;20041;-81
2021/08/19 04:22:28;;;;;;;3.90;3.50;;;13.50;91.30;;;;;;5051604;28;20067;-81
2021/08/19 04:24:56;;;;;;;3.85;3.13;;;13.50;91.30;;;;;;5041629;28;20057;-81
2021/08/19 04:27:24;;;;;;;4.68;3.10;;;13.50;91.30;;;;;;5035424;28;20402;-81
2021/08/19 04:29:51;;;;;;;3.60;3.03;;;13.50;91.30;;;;;;5039551;28;20379;-81
2021/08/19 04:32:19;;;;;;;3.33;3.10;;;13.50;91.30;;;;;;5052250;28;20053;-81
2021/08/19 04:34:46;;;;;;;3.63;2.97;;;13.50;91.30;;;;;;5038267;28;20052;-81
2021/08/19 04:37:14;;;;;;;3.30;3.03;;;13.50;91.30;;;;;;5043377;28;20049;-81
2021/08/19 04:39:41;;;;;;;3.90;3.25;;;13.60;91.30;;;;;;5042801;28;20061;-81
2021/08/19 04:42:09;;;;;;;3.10;2.80;;;13.60;91.30;;;;;;5037654;28;20064;-81
2021/08/19 04:44:37;;;;;;;7.10;2.70;;;13.50;91.20;;;;;;5034599;28;20046;-81
2021/08/19 04:47:04;;;;;;;3.75;3.25;;;13.60;91.10;;;;;;5031683;28;20045;-81
2021/08/19 04:49:32;;;;;;;6.43;2.85;;;13.60;91.00;;;;;;5032015;28;20037;-81
2021/08/19 04:52:00;;;;;;;3.40;2.90;;;13.60;90.90;;;;;;5032161;28;20050;-81
2021/08/19 04:54:27;;;;;;;3.38;2.95;;;13.60;90.70;;;;;;5030601;28;20052;-81
2021/08/19 04:56:55;;;;;;;3.63;3.00;;;13.70;90.70;;;;;;5031783;28;20053;-81
2021/08/19 04:59:22;;;;;;;3.53;2.63;;;13.70;90.50;;;;;;5031822;28;20049;-81
2021/08/19 05:01:50;;;;;;;3.50;3.00;;;13.70;90.30;;;;;;5031317;28;20056;-81
2021/08/19 05:04:23;;;;;;;4.13;2.65;;;13.70;90.10;;;;;;5026830;28;20042;-81
2021/08/19 05:06:50;;;;;;;5.63;3.00;;;13.70;89.80;;;;;;5030918;28;20463;-81
2021/08/19 05:09:18;;;;;;;5.18;2.90;;;13.70;89.60;;;;;;5031621;28;20049;-81
2021/08/19 05:11:45;;;;;;;4.97;3.20;;;13.70;89.40;;;;;;5032816;28;20049;-81
2021/08/19 05:14:13;;;;;;;6.43;3.25;;;13.70;89.30;;;;;;5035736;28;20049;-81
2021/08/19 05:16:41;;;;;;;3.92;3.28;;;13.70;89.10;;;;;;5032320;28;20056;-82
2021/08/19 05:19:08;;;;;;;9.63;3.70;;;13.70;89.10;;;;;;5030894;28;20049;-81
2021/08/19 05:21:36;;;;;;;6.40;3.33;;;13.60;89.00;;;;;;5034134;28;20037;-81
2021/08/19 05:24:04;;;;;;;5.70;3.42;;;13.70;88.90;;;;;;5050542;28;20391;-81
2021/08/19 05:26:31;;;;;;;5.85;3.13;;;13.60;88.70;;;;;;5044753;28;20054;-81
2021/08/19 05:28:59;;;;;;;6.30;3.67;;;13.70;88.60;;;;;;5040911;28;20048;-81
2021/08/19 05:31:26;;;;;;;3.92;3.28;;;13.70;88.60;;;;;;5040531;28;20403;-81
2021/08/19 05:33:55;;;;;;;3.53;3.00;;;13.70;88.60;;;;;;5038304;28;20060;-81
2021/08/19 05:36:22;;;;;;;5.60;3.40;;;13.70;88.70;;;;;;5037416;28;20380;-81
2021/08/19 05:38:50;;;;;;;6.68;3.40;;;13.70;88.80;;;;;;5055498;28;20056;-81
2021/08/19 05:41:17;;;;;;;6.25;3.83;;;13.70;88.90;;;;;;5053699;28;20060;-81
2021/08/19 05:43:45;;;;;;;5.18;3.28;;;13.80;89.00;;;;;;5041860;28;20403;-81
2021/08/19 05:46:12;;;;;;;4.97;3.47;;;13.80;89.10;;;;;;5044963;28;20052;-81
2021/08/19 05:48:40;;;;;;;8.18;3.38;;;13.80;89.10;;;;;;5050428;28;20045;-81
2021/08/19 05:51:10;;;;;;;4.93;3.30;;;13.80;89.10;;;;;;5039086;28;20037;-81
2021/08/19 05:53:37;;;;;;;4.57;3.10;;;13.80;89.10;;;;;;5042719;28;20494;-81
2021/08/19 05:56:05;;;;;;;4.05;3.15;;;13.80;89.10;;;;;;5054509;28;20506;-81
2021/08/19 05:58:32;;;;;;;5.78;3.38;;;13.80;89.10;;;;;;5038353;28;20076;-81
2021/08/19 06:01:00;;;;;;;4.53;3.35;;;13.80;89.10;;;;;;5035364;28;20057;-81
2021/08/19 06:03:29;;;;;;;4.53;3.15;;;13.80;89.00;;;;;;5034919;28;20046;-82
2021/08/19 06:05:56;;;;;;;4.97;3.35;;;13.90;89.00;;;;;;5033713;28;20064;-81
2021/08/19 06:08:24;;;;;;;3.63;3.10;;;13.90;89.00;;;;;;5044717;28;20056;-81
2021/08/19 06:10:51;;;;;;;3.90;3.20;;;13.90;89.00;;;;;;5037955;28;20406;-81
2021/08/19 06:13:19;;;;;;;5.57;3.10;;;14.00;88.90;;;;;;5042842;28;20053;-81
2021/08/19 06:15:47;;;;;;;3.13;2.75;;;14.00;88.90;;;;;;5039360;28;20038;-81
2021/08/19 06:18:14;;;;;;;9.35;3.00;;;14.00;88.80;;;;;;5036113;28;20038;-81
2021/08/19 06:20:42;;;;;;;7.07;3.20;;;14.20;88.70;;;;;;5053937;28;20048;-81
2021/08/19 06:23:13;;;;;;;4.53;2.58;;;14.20;88.60;;;;;;5037634;28;20045;-80
2021/08/19 06:25:42;;;;;;;3.33;3.00;;;14.30;88.50;;;;;;5045356;28;20037;-80
2021/08/19 06:28:10;;;;;;;6.63;2.78;;;14.40;88.40;;;;;;5043647;28;20052;-80
2021/08/19 06:30:38;;;;;;;5.10;2.70;;;14.50;88.10;;;;;;5035108;28;20045;-80
2021/08/19 06:33:06;;;;;;;6.90;2.42;;;14.60;87.90;;;;;;5054154;28;20056;-80
2021/08/19 06:35:33;;;;;;;5.70;2.53;;;14.70;87.50;;;;;;5036599;28;20041;-80
2021/08/19 06:38:01;;;;;;;4.13;2.50;;;14.80;87.30;;;;;;5036296;28;20045;-80
2021/08/19 06:40:29;;;;;;;4.10;2.95;;;14.90;86.90;;;;;;5046107;28;20037;-80
2021/08/19 06:42:56;;;;;;;4.10;2.83;;;15.00;86.30;;;;;;5042579;28;20073;-81
2021/08/19 06:45:24;;;;;;;5.53;2.95;;;15.00;85.80;;;;;;5037766;28;20507;-81
2021/08/19 06:47:51;;;;;;;5.40;2.65;;;14.90;86.00;;;;;;5048492;28;20060;-80
2021/08/19 06:50:19;;;;;;;4.30;2.50;;;14.80;86.10;;;;;;5052885;28;20124;-80
2021/08/19 06:52:47;;;;;;;4.15;2.88;;;14.80;86.10;;;;;;5041750;28;20045;-81
2021/08/19 06:55:15;;;;;;;3.97;2.50;;;14.70;86.30;;;;;;5053866;28;20517;-81
2021/08/19 06:57:43;;;;;;;5.32;2.92;;;14.70;86.30;;;;;;5046245;28;20038;-80
2021/08/19 07:00:12;;;;;;;3.47;2.75;;;14.70;86.20;;;;;;5046065;28;20403;-81
2021/08/19 07:02:41;;;;;;;5.22;2.85;;;14.70;86.30;;;;;;5035293;28;20049;-80
2021/08/19 07:05:10;;;;;;;4.00;2.70;;;14.70;86.40;;;;;;5040787;28;20037;-80
2021/08/19 07:07:38;;;;;;;4.72;2.67;;;14.80;86.30;;;;;;5039983;28;20544;-80
2021/08/19 07:10:07;;;;;;;6.07;2.67;;;14.80;86.30;;;;;;5047074;28;20402;-81
2021/08/19 07:12:36;;;;;;;6.38;3.17;;;14.90;86.20;;;;;;5045535;28;20407;-80
2021/08/19 07:15:06;;;;;;;4.82;2.63;;;15.00;86.20;;;;;;5041465;28;20414;-80
2021/08/19 07:17:34;;;;;;;7.72;3.08;;;15.00;85.70;;;;;;5042663;28;20033;-82
2021/08/19 07:20:03;;;;;;;6.55;2.55;;;15.10;85.50;;;;;;5037789;28;20049;-80
2021/08/19 07:22:31;;;;;;;4.90;2.55;;;15.20;85.40;;;;;;5033401;28;20041;-79
2021/08/19 07:24:58;;;;;;;4.85;2.88;;;15.30;85.00;;;;;;5033353;28;20521;-79
2021/08/19 07:27:26;;;;;;;4.22;2.58;;;15.60;84.80;;;;;;5033169;28;20065;-82
2021/08/19 07:29:53;;;;;;;3.55;2.20;;;15.70;83.80;;;;;;5032006;28;20049;-82
2021/08/19 07:32:21;;;;;;;5.07;2.75;;;15.80;83.30;;;;;;5051737;28;20040;-81
2021/08/19 07:34:49;;;;;;;6.13;3.15;;;15.80;82.50;;;;;;5063448;28;20044;-81
2021/08/19 07:37:16;;;;;;;5.78;2.80;;;15.80;82.40;;;;;;5048860;28;20053;-81
2021/08/19 07:39:44;;;;;;;4.90;2.45;;;15.80;82.70;;;;;;5052455;28;20044;-81
2021/08/19 07:42:12;;;;;;;3.63;2.53;;;15.80;82.90;;;;;;5047821;28;20403;-82
2021/08/19 07:44:39;;;;;;;5.55;2.55;;;15.80;82.70;;;;;;5049608;28;20053;-81
2021/08/19 07:47:07;;;;;;;3.75;2.38;;;15.80;82.70;;;;;;5049006;28;20052;-81
2021/08/19 07:49:35;;;;;;;3.05;2.28;;;15.90;82.50;;;;;;5047859;28;20063;-80
2021/08/19 07:52:03;;;;;;;5.57;2.28;;;16.00;82.50;;;;;;5047350;28;20456;-81
2021/08/19 07:54:31;;;;;;;4.53;2.60;;;16.00;82.20;;;;;;5049566;28;20049;-81
2021/08/19 07:56:58;;;;;;;5.43;2.63;;;16.00;82.00;;;;;;5049177;28;20037;-81
2021/08/19 07:59:26;;;;;;;7.97;3.03;;;16.10;81.90;;;;;;5049310;28;20065;-81
2021/08/19 08:02:02;;;;;;;6.60;2.90;;;16.20;81.80;;;;;;5048198;28;20045;-81
2021/08/19 08:04:30;;;;;;;4.22;2.67;;;16.20;81.20;;;;;;5049656;28;20068;-80
2021/08/19 08:06:58;;;;;;;6.25;2.38;;;16.20;81.00;;;;;;5048092;28;20041;-80
2021/08/19 08:09:26;;;;;;;5.95;2.83;;;16.20;80.70;;;;;;5049760;28;20408;-80
2021/08/19 08:11:53;;;;;;;5.65;2.63;;;16.30;80.60;;;;;;5049641;28;20049;-80
2021/08/19 08:14:21;;;;;;;6.60;2.42;;;16.30;80.30;;;;;;5048770;28;20057;-81
2021/08/19 08:16:49;;;;;;;3.63;2.50;;;16.30;79.80;;;;;;5030722;28;20061;-80
2021/08/19 08:19:17;;;;;;;6.80;3.08;;;16.40;79.10;;;;;;5028951;28;20503;-80
2021/08/19 08:21:45;;;;;;;7.60;2.80;;;16.50;78.80;;;;;;5029473;28;20042;-81
2021/08/19 08:24:13;;;;;;;8.15;2.58;;;16.60;78.70;;;;;;5028796;28;20510;-80
2021/08/19 08:26:41;;;;;;;7.50;2.70;;;16.70;78.60;;;;;;5045661;28;20049;-81
2021/08/19 08:29:08;;;;;;;4.70;2.30;;;16.80;78.10;;;;;;5063592;28;20433;-80
2021/08/19 08:31:37;;;;;;;5.00;2.30;;;16.90;78.00;;;;;;5043323;28;20060;-80
2021/08/19 08:34:05;;;;;;;5.57;2.53;;;17.00;76.80;;;;;;5028086;28;20311;-80
2021/08/19 08:36:33;;;;;;;10.32;3.03;;;17.10;76.90;;;;;;5028329;28;20041;-81
2021/08/19 08:39:02;;;;;;;6.65;2.72;;;17.10;76.60;;;;;;5026895;28;20065;-80
2021/08/19 08:41:32;;;;;;;5.10;2.50;;;17.10;76.60;;;;;;5028093;28;20053;-80
2021/08/19 08:44:00;;;;;;;3.45;2.13;;;17.00;76.60;;;;;;5027823;28;20418;-82
2021/08/19 08:46:28;;;;;;;7.47;2.65;;;17.00;76.70;;;;;;5028631;28;20037;-80
2021/08/19 08:48:58;;;;;;;4.53;2.30;;;16.90;76.50;;;;;;5028840;28;20046;-81
2021/08/19 08:51:26;;;;;;;5.10;2.47;;;16.80;76.70;;;;;;5029310;28;20053;-81
2021/08/19 08:53:54;;;;;;;3.72;2.60;;;16.80;76.70;;;;;;5029696;28;20058;-81
2021/08/19 08:56:25;;;;;;;5.75;2.40;;;16.70;77.00;;;;;;5028967;28;20048;-81
2021/08/19 08:58:52;;;;;;;7.25;2.70;;;16.70;77.20;;;;;;5029540;28;20057;-82
2021/08/19 09:01:20;;;;;;;4.15;2.50;;;16.60;77.20;;;;;;5034667;28;20053;-81
2021/08/19 09:03:48;;;;;;;6.72;2.53;;;16.50;77.30;;;;;;5035119;28;20052;-82
2021/08/19 09:06:35;;;;;;;6.40;2.63;;;16.40;77.80;;;;;;5042520;28;20049;-81
2021/08/19 09:09:16;;;;;;;5.88;2.63;;;16.40;78.00;;;;;;5056062;28;20056;-81
2021/08/19 09:11:46;;;;;;;5.68;2.30;;;16.40;78.20;;;;;;5054236;28;20063;-81
2021/08/19 09:14:20;;;;;;;5.40;2.58;;;16.30;78.20;;;;;;5059186;28;20061;-80
2021/08/19 09:16:48;;;;;;;3.90;2.63;;;16.30;78.20;;;;;;5054134;28;20053;-80
2021/08/19 09:19:18;;;;;;;5.53;2.67;;;16.30;77.80;;;;;;5051349;28;20537;-81
2021/08/19 09:21:53;;;;;;;6.82;2.50;;;16.30;78.20;;;;;;5050399;28;20061;-80
2021/08/19 09:24:32;;;;;;;6.07;2.60;;;16.30;78.50;;;;;;5052647;28;20041;-81
2021/08/19 09:27:11;;;;;;;5.22;2.72;;;16.30;79.00;;;;;;5050138;28;20072;-81
2021/08/19 09:29:39;;;;;;;5.53;2.95;;;16.40;79.40;;;;;;5052014;28;20060;-80
2021/08/19 09:32:15;;;;;;;5.88;3.03;;;16.40;79.20;;;;;;5046052;28;20052;-80
2021/08/19 09:34:49;;;;;;;8.85;3.25;;;16.50;79.40;;;;;;5039555;28;20059;-81
2021/08/19 09:37:19;;;;;;;4.95;2.97;;;16.50;79.50;;;;;;5040459;28;20049;-80
2021/08/19 09:39:53;;;;;;;5.95;2.47;;;16.60;79.70;;;;;;5039809;28;20047;-79
2021/08/19 09:42:37;;;;;;;5.20;2.60;;;16.80;79.50;;;;;;5040691;28;20483;-81
2021/08/19 09:45:17;;;;;;;4.72;2.70;;;17.00;79.20;;;;;;5038564;28;20049;-81
2021/08/19 09:47:45;;;;;;;7.70;3.10;;;17.20;78.30;;;;;;5037371;28;20502;-81
2021/08/19 09:50:16;;;;;;;3.95;2.42;;;17.30;78.30;;;;;;5039531;28;20041;-82
2021/08/19 09:52:49;;;;;;;6.72;3.33;;;17.50;78.10;;;;;;5040701;28;20211;-80
2021/08/19 09:55:26;;;;;;;5.78;3.08;;;17.60;77.60;;;;;;5041836;28;20057;-80
2021/08/19 09:57:57;;;;;;;5.68;2.63;;;17.50;77.00;;;;;;5045777;28;20053;-81
2021/08/19 10:00:30;;;;;;;5.55;2.83;;;17.30;77.10;;;;;;5045154;28;20064;-81
2021/08/19 10:03:11;;;;;;;8.73;2.85;;;17.30;77.30;;;;;;5042945;28;20051;-80
2021/08/19 10:05:39;;;;;;;5.10;2.97;;;17.10;77.80;;;;;;5043181;28;20056;-81
2021/08/19 10:08:10;;;;;;;4.60;2.67;;;17.00;78.20;;;;;;5044507;28;20706;-81
2021/08/19 10:10:41;;;;;;;5.30;2.83;;;17.00;78.70;;;;;;5038551;28;20045;-80
2021/08/19 10:13:11;;;;;;;5.35;2.83;;;17.00;79.00;;;;;;5040054;28;20045;-81
2021/08/19 10:15:42;;;;;;;5.75;2.70;;;17.00;79.00;;;;;;5038177;28;20034;-80
2021/08/19 10:18:15;;;;;;;4.93;3.00;;;17.00;79.00;;;;;;5037824;28;20048;-80
2021/08/19 10:20:48;;;;;;;3.20;2.58;;;16.90;78.90;;;;;;5027829;28;20049;-80
2021/08/19 10:23:16;;;;;;;5.70;2.95;;;16.80;79.10;;;;;;5028569;28;20045;-81
2021/08/19 10:25:45;;;;;;;6.03;3.20;;;16.80;79.30;;;;;;5028121;28;20045;-81
2021/08/19 10:28:15;;;;;;;5.50;3.20;;;16.80;79.30;;;;;;5028816;28;20057;-81
2021/08/19 10:30:58;;;;;;;6.97;3.35;;;16.80;79.50;;;;;;5027597;28;20431;-81
2021/08/19 10:33:38;;;;;;;6.10;3.15;;;16.80;80.00;;;;;;5028126;28;20418;-81
2021/08/19 10:36:12;;;;;;;7.32;3.60;;;16.90;80.40;;;;;;5035862;28;20045;-81
2021/08/19 10:38:43;;;;;;;5.93;3.53;;;17.30;80.30;;;;;;5042153;28;20036;-82
2021/08/19 10:41:30;;;;;;;6.15;3.33;;;17.60;80.10;;;;;;5040463;28;20033;-81
2021/08/19 10:44:05;;;;;;;5.18;3.28;;;17.80;79.50;;;;;;5041598;28;20041;-81
2021/08/19 10:46:45;;;;;;;3.40;3.10;;;17.90;79.30;;;;;;5040901;28;20040;-81
2021/08/19 10:49:33;;;;;;;4.85;3.20;;;17.90;79.30;;;;;;5042978;28;20060;-82
2021/08/19 10:52:12;;;;;;;3.88;3.42;;;18.00;79.00;;;;;;5025000;28;20057;-80
2021/08/19 10:54:43;;;;;;;3.83;3.35;;;18.20;78.90;;;;;;5043306;28;20053;-80
2021/08/19 10:57:32;;;;;;;5.60;3.53;;;18.20;78.10;;;;;;5042653;28;20037;-80
2021/08/19 11:00:07;;;;;;;4.28;3.88;;;18.00;77.80;;;;;;5041311;28;20494;-80
2021/08/19 11:02:45;;;;;;;4.93;3.95;;;17.80;78.50;;;;;;5047191;28;20049;-79
2021/08/19 11:05:20;;;;;;;6.05;4.28;;;17.70;79.10;;;;;;5037158;28;20049;-80
2021/08/19 11:07:50;;;;;;;5.40;4.03;;;17.50;79.70;;;;;;5046172;28;20050;-79
2021/08/19 11:10:39;;;;;;;4.70;4.30;;;17.60;80.20;;;;;;5036444;28;20045;-80
2021/08/19 11:13:12;;;;;;;4.80;3.80;;;17.50;80.30;;;;;;5043660;28;20055;-80
2021/08/19 11:15:48;;;;;;;6.23;4.40;;;17.40;80.40;;;;;;5053634;28;20052;-80
2021/08/19 11:18:30;;;;;;;5.50;4.68;;;17.40;80.60;;;;;;5047211;28;20324;-80
2021/08/19 11:20:58;;;;;;;6.22;4.15;;;17.30;80.80;;;;;;5041651;28;20264;-80
2021/08/19 11:23:34;;;;;;;5.57;4.65;;;17.30;80.90;;;;;;5043460;28;20041;-79
2021/08/19 11:26:07;;;;;;;5.70;5.15;;;17.20;80.60;;;;;;5042168;28;20042;-79
2021/08/19 11:28:45;;;;;;;7.13;5.45;;;17.00;81.20;;;;;;5043245;28;20045;-79
2021/08/19 11:31:21;;;;;;;10.07;6.05;;;16.80;81.80;;;;;;5031217;28;20053;-79
2021/08/19 11:34:00;;;;;;;9.68;5.95;;;16.70;82.50;;;;;;5032293;28;20064;-79
2021/08/19 11:36:29;;;;;;;6.22;5.70;;;16.50;83.00;;;;;;5031281;28;20053;-79
2021/08/19 11:38:59;;;;;;;9.52;6.53;;;16.50;83.10;;;;;;5032061;28;20072;-79
2021/08/19 11:41:29;;;;;;;6.00;4.65;;;16.40;83.50;;;;;;5031696;28;20507;-79
2021/08/19 11:43:59;;;;;;;6.53;4.90;;;16.40;83.80;;;;;;5031575;28;20065;-79
2021/08/19 11:46:28;;;;;;;5.45;4.25;;;16.30;83.70;;;;;;5030879;28;20042;-79
2021/08/19 11:49:01;;;;;;;6.38;5.13;;;16.30;83.70;;;;;;5032183;28;20053;-81
2021/08/19 11:51:37;;;;;;;5.45;4.75;;;16.30;83.80;;;;;;5031684;28;20045;-80
2021/08/19 11:54:07;;;;;;;6.97;5.07;;;16.40;83.80;;;;;;5033122;28;20529;-79
2021/08/19 11:56:37;;;;;;;7.15;4.78;;;16.50;83.60;;;;;;5041156;28;20048;-79
2021/08/19 11:59:14;;;;;;;6.47;4.50;;;16.60;83.50;;;;;;5042059;28;20076;-79
2021/08/19 12:01:49;;;;;;;4.90;4.40;;;16.80;83.30;;;;;;5041929;28;20411;-79
2021/08/19 12:04:33;;;;;;;7.38;5.03;;;17.00;82.90;;;;;;5046821;28;20061;-79
2021/08/19 12:07:03;;;;;;;5.00;4.07;;;17.20;81.80;;;;;;5041508;28;20049;-78
2021/08/19 12:09:40;;;;;;;5.97;4.38;;;17.40;81.10;;;;;;5038994;28;20045;-79
2021/08/19 12:12:08;;;;;;;8.13;4.60;;;17.50;80.50;;;;;;5037584;28;20045;-79
2021/08/19 12:14:36;;;;;;;7.28;3.75;;;17.70;80.40;;;;;;5040532;28;20132;-79
2021/08/19 12:17:10;;;;;;;4.70;4.20;;;17.80;80.60;;;;;;5040664;28;20052;-79
2021/08/19 12:19:38;;;;;;;5.22;3.20;;;18.10;79.80;;;;;;5030747;28;20060;-78
2021/08/19 12:22:06;;;;;;;3.85;3.25;;;18.30;79.80;;;;;;5030831;28;20046;-79
2021/08/19 12:24:36;;;;;;;4.53;2.75;;;18.40;79.00;;;;;;5030852;28;20046;-79
2021/08/19 12:27:16;;;;;;;2.50;2.30;;;18.40;78.80;;;;;;5019707;28;20049;-78
2021/08/19 12:29:50;;;;;;;2.80;2.60;;;18.50;78.10;;;;;;5030846;28;20037;-81
2021/08/19 12:32:35;;;;;;;3.78;2.90;;;18.50;77.80;;;;;;5038408;28;20056;-79
2021/08/19 12:35:12;;;;;;;3.80;3.10;;;18.60;78.00;;;;;;5039543;28;20057;-79
2021/08/19 12:37:51;;;;;;;6.05;3.17;;;18.60;78.00;;;;;;5037882;28;20045;-79
2021/08/19 12:40:19;;;;;;;3.58;3.28;;;18.60;77.80;;;;;;5039494;28;20064;-79
2021/08/19 12:42:46;;;;;;;4.60;3.30;;;18.40;77.80;;;;;;5040603;28;20045;-79
2021/08/19 12:45:22;;;;;;;5.07;3.28;;;18.40;78.20;;;;;;5039873;28;20064;-79
2021/08/19 12:48:00;;;;;;;3.78;3.35;;;18.40;78.70;;;;;;5038726;28;20041;-79
2021/08/19 12:50:29;;;;;;;3.85;3.30;;;18.60;78.30;;;;;;5040389;28;20044;-79
2021/08/19 12:53:08;;;;;;;4.20;3.00;;;18.60;78.20;;;;;;5039986;28;20049;-79
2021/08/19 12:55:36;;;;;;;4.85;3.17;;;18.80;77.90;;;;;;5038359;28;20053;-79
2021/08/19 12:58:04;;;;;;;5.43;3.42;;;19.00;77.30;;;;;;5040452;28;20041;-79
2021/08/19 13:00:34;;;;;;;3.45;2.90;;;19.10;77.10;;;;;;5039015;28;20493;-79